sensor_id;sensor_type;location;lat;lon;timestamp;P1;durP1;ratioP1;P2;durP2;ratioP2
3211;SDS011;1618;47.056;15.472;2023-05-07T00:02:25;7.20;;;6.90;;
3211;SDS011;1618;47.056;15.472;2023-05-07T00:04:52;6.73;;;6.43;;
3211;SDS011;1618;47.056;15.472;2023-05-07T00:07:20;7.60;;;7.03;;
3211;SDS011;1618;47.056;15.472;2023-05-07T00:09:47;7.63;;;7.23;;
3211;SDS011;1618;47.056;15.472;2023-05-07T00:12:15;6.93;;;6.63;;
3211;SDS011;1618;47.056;15.472;2023-05-07T00:14:42;8.17;;;7.70;;
3211;SDS011;1618;47.056;15.472;2023-05-07T00:17:10;7.50;;;7.20;;
3211;SDS011;1618;47.056;15.472;2023-05-07T00:19:39;8.20;;;7.80;;
3211;SDS011;1618;47.056;15.472;2023-05-07T00:22:06;8.30;;;7.90;;
3211;SDS011;1618;47.056;15.472;2023-05-07T00:24:34;8.10;;;7.80;;
3211;SDS011;1618;47.056;15.472;2023-05-07T00:27:01;8.23;;;7.83;;
3211;SDS011;1618;47.056;15.472;2023-05-07T00:29:28;8.30;;;8.00;;
3211;SDS011;1618;47.056;15.472;2023-05-07T00:31:56;8.03;;;7.73;;
3211;SDS011;1618;47.056;15.472;2023-05-07T00:34:23;6.67;;;6.27;;
3211;SDS011;1618;47.056;15.472;2023-05-07T00:36:51;5.53;;;5.13;;
3211;SDS011;1618;47.056;15.472;2023-05-07T00:39:19;5.30;;;5.00;;
3211;SDS011;1618;47.056;15.472;2023-05-07T00:41:46;4.47;;;4.20;;
3211;SDS011;1618;47.056;15.472;2023-05-07T00:44:13;3.60;;;3.50;;
3211;SDS011;1618;47.056;15.472;2023-05-07T00:46:41;3.83;;;3.73;;
3211;SDS011;1618;47.056;15.472;2023-05-07T00:49:09;3.43;;;3.33;;
3211;SDS011;1618;47.056;15.472;2023-05-07T00:51:37;3.20;;;3.10;;
3211;SDS011;1618;47.056;15.472;2023-05-07T00:54:06;3.43;;;3.33;;
3211;SDS011;1618;47.056;15.472;2023-05-07T00:56:33;3.80;;;3.70;;
3211;SDS011;1618;47.056;15.472;2023-05-07T00:59:01;3.60;;;3.50;;
3211;SDS011;1618;47.056;15.472;2023-05-07T01:01:28;3.17;;;3.07;;
3211;SDS011;1618;47.056;15.472;2023-05-07T01:03:56;3.40;;;3.30;;
3211;SDS011;1618;47.056;15.472;2023-05-07T01:06:23;3.33;;;3.23;;
3211;SDS011;1618;47.056;15.472;2023-05-07T01:08:52;3.60;;;3.50;;
3211;SDS011;1618;47.056;15.472;2023-05-07T01:11:23;3.40;;;3.30;;
3211;SDS011;1618;47.056;15.472;2023-05-07T01:13:50;3.40;;;3.30;;
3211;SDS011;1618;47.056;15.472;2023-05-07T01:16:18;3.20;;;3.10;;
3211;SDS011;1618;47.056;15.472;2023-05-07T01:18:46;3.90;;;3.70;;
3211;SDS011;1618;47.056;15.472;2023-05-07T01:21:14;3.80;;;3.70;;
3211;SDS011;1618;47.056;15.472;2023-05-07T01:23:44;4.20;;;4.03;;
3211;SDS011;1618;47.056;15.472;2023-05-07T01:26:11;3.60;;;3.50;;
3211;SDS011;1618;47.056;15.472;2023-05-07T01:28:38;4.10;;;4.00;;
3211;SDS011;1618;47.056;15.472;2023-05-07T01:31:05;3.50;;;3.40;;
3211;SDS011;1618;47.056;15.472;2023-05-07T01:33:34;4.00;;;3.90;;
3211;SDS011;1618;47.056;15.472;2023-05-07T01:36:02;4.13;;;3.93;;
3211;SDS011;1618;47.056;15.472;2023-05-07T01:38:31;4.53;;;4.33;;
3211;SDS011;1618;47.056;15.472;2023-05-07T01:41:00;4.50;;;4.40;;
3211;SDS011;1618;47.056;15.472;2023-05-07T01:43:28;4.30;;;4.20;;
3211;SDS011;1618;47.056;15.472;2023-05-07T01:45:55;5.60;;;5.40;;
3211;SDS011;1618;47.056;15.472;2023-05-07T01:48:24;4.50;;;4.40;;
3211;SDS011;1618;47.056;15.472;2023-05-07T01:50:51;5.30;;;5.10;;
3211;SDS011;1618;47.056;15.472;2023-05-07T01:53:19;5.37;;;5.17;;
3211;SDS011;1618;47.056;15.472;2023-05-07T01:55:46;4.67;;;4.57;;
3211;SDS011;1618;47.056;15.472;2023-05-07T01:58:15;4.90;;;4.70;;
3211;SDS011;1618;47.056;15.472;2023-05-07T02:00:42;5.33;;;5.13;;
3211;SDS011;1618;47.056;15.472;2023-05-07T02:03:09;5.33;;;5.13;;
3211;SDS011;1618;47.056;15.472;2023-05-07T02:05:37;5.20;;;5.00;;
3211;SDS011;1618;47.056;15.472;2023-05-07T02:08:04;5.17;;;5.00;;
3211;SDS011;1618;47.056;15.472;2023-05-07T02:10:31;4.80;;;4.70;;
3211;SDS011;1618;47.056;15.472;2023-05-07T02:12:58;5.33;;;5.13;;
3211;SDS011;1618;47.056;15.472;2023-05-07T02:15:28;6.20;;;6.00;;
3211;SDS011;1618;47.056;15.472;2023-05-07T02:17:59;6.10;;;5.90;;
3211;SDS011;1618;47.056;15.472;2023-05-07T02:20:26;5.90;;;5.70;;
3211;SDS011;1618;47.056;15.472;2023-05-07T02:22:53;5.90;;;5.70;;
3211;SDS011;1618;47.056;15.472;2023-05-07T02:25:21;5.80;;;5.60;;
3211;SDS011;1618;47.056;15.472;2023-05-07T02:27:48;6.10;;;5.90;;
3211;SDS011;1618;47.056;15.472;2023-05-07T02:30:15;5.90;;;5.70;;
3211;SDS011;1618;47.056;15.472;2023-05-07T02:32:44;6.00;;;5.80;;
3211;SDS011;1618;47.056;15.472;2023-05-07T02:35:12;6.10;;;5.90;;
3211;SDS011;1618;47.056;15.472;2023-05-07T02:37:39;5.90;;;5.70;;
3211;SDS011;1618;47.056;15.472;2023-05-07T02:40:06;6.03;;;5.83;;
3211;SDS011;1618;47.056;15.472;2023-05-07T02:42:34;5.90;;;5.70;;
3211;SDS011;1618;47.056;15.472;2023-05-07T02:45:01;5.73;;;5.53;;
3211;SDS011;1618;47.056;15.472;2023-05-07T02:47:28;6.10;;;5.90;;
3211;SDS011;1618;47.056;15.472;2023-05-07T02:49:57;6.50;;;6.20;;
3211;SDS011;1618;47.056;15.472;2023-05-07T02:52:24;5.70;;;5.50;;
3211;SDS011;1618;47.056;15.472;2023-05-07T02:54:52;5.90;;;5.70;;
3211;SDS011;1618;47.056;15.472;2023-05-07T02:57:19;5.87;;;5.67;;
3211;SDS011;1618;47.056;15.472;2023-05-07T02:59:46;5.50;;;5.30;;
3211;SDS011;1618;47.056;15.472;2023-05-07T03:02:13;5.10;;;4.93;;
3211;SDS011;1618;47.056;15.472;2023-05-07T03:04:41;5.47;;;5.27;;
3211;SDS011;1618;47.056;15.472;2023-05-07T03:07:09;5.60;;;5.40;;
3211;SDS011;1618;47.056;15.472;2023-05-07T03:09:36;6.20;;;6.00;;
3211;SDS011;1618;47.056;15.472;2023-05-07T03:12:04;6.37;;;6.17;;
3211;SDS011;1618;47.056;15.472;2023-05-07T03:14:31;6.00;;;5.80;;
3211;SDS011;1618;47.056;15.472;2023-05-07T03:16:58;5.20;;;5.00;;
3211;SDS011;1618;47.056;15.472;2023-05-07T03:19:26;4.80;;;4.70;;
3211;SDS011;1618;47.056;15.472;2023-05-07T03:21:53;5.37;;;5.17;;
3211;SDS011;1618;47.056;15.472;2023-05-07T03:24:22;6.03;;;5.83;;
3211;SDS011;1618;47.056;15.472;2023-05-07T03:26:49;5.90;;;5.70;;
3211;SDS011;1618;47.056;15.472;2023-05-07T03:29:16;6.50;;;6.30;;
3211;SDS011;1618;47.056;15.472;2023-05-07T03:31:43;5.90;;;5.70;;
3211;SDS011;1618;47.056;15.472;2023-05-07T03:34:11;5.77;;;5.57;;
3211;SDS011;1618;47.056;15.472;2023-05-07T03:36:38;5.40;;;5.20;;
3211;SDS011;1618;47.056;15.472;2023-05-07T03:39:05;5.50;;;5.30;;
3211;SDS011;1618;47.056;15.472;2023-05-07T03:41:34;5.73;;;5.53;;
3211;SDS011;1618;47.056;15.472;2023-05-07T03:44:01;5.50;;;5.30;;
3211;SDS011;1618;47.056;15.472;2023-05-07T03:46:29;5.60;;;5.40;;
3211;SDS011;1618;47.056;15.472;2023-05-07T03:48:57;5.47;;;5.27;;
3211;SDS011;1618;47.056;15.472;2023-05-07T03:51:25;4.40;;;4.30;;
3211;SDS011;1618;47.056;15.472;2023-05-07T03:53:52;4.63;;;4.53;;
3211;SDS011;1618;47.056;15.472;2023-05-07T03:56:19;4.30;;;4.20;;
3211;SDS011;1618;47.056;15.472;2023-05-07T03:58:48;4.30;;;4.20;;
3211;SDS011;1618;47.056;15.472;2023-05-07T04:01:15;4.20;;;4.10;;
3211;SDS011;1618;47.056;15.472;2023-05-07T04:03:43;4.47;;;4.37;;
3211;SDS011;1618;47.056;15.472;2023-05-07T04:06:10;4.40;;;4.30;;
3211;SDS011;1618;47.056;15.472;2023-05-07T04:08:37;4.40;;;4.30;;
3211;SDS011;1618;47.056;15.472;2023-05-07T04:11:05;4.70;;;4.60;;
3211;SDS011;1618;47.056;15.472;2023-05-07T04:13:32;4.90;;;4.70;;
3211;SDS011;1618;47.056;15.472;2023-05-07T04:16:01;6.33;;;5.90;;
3211;SDS011;1618;47.056;15.472;2023-05-07T04:18:28;4.40;;;4.30;;
3211;SDS011;1618;47.056;15.472;2023-05-07T04:20:55;5.23;;;5.03;;
3211;SDS011;1618;47.056;15.472;2023-05-07T04:23:23;4.73;;;4.63;;
3211;SDS011;1618;47.056;15.472;2023-05-07T04:25:50;4.60;;;4.50;;
3211;SDS011;1618;47.056;15.472;2023-05-07T04:28:19;5.27;;;5.07;;
3211;SDS011;1618;47.056;15.472;2023-05-07T04:30:46;5.30;;;5.10;;
3211;SDS011;1618;47.056;15.472;2023-05-07T04:33:15;5.30;;;5.10;;
3211;SDS011;1618;47.056;15.472;2023-05-07T04:35:43;6.07;;;5.87;;
3211;SDS011;1618;47.056;15.472;2023-05-07T04:38:11;6.60;;;6.30;;
3211;SDS011;1618;47.056;15.472;2023-05-07T04:40:38;6.50;;;6.20;;
3211;SDS011;1618;47.056;15.472;2023-05-07T04:43:06;5.70;;;5.50;;
3211;SDS011;1618;47.056;15.472;2023-05-07T04:45:34;6.20;;;6.00;;
3211;SDS011;1618;47.056;15.472;2023-05-07T04:48:01;5.70;;;5.50;;
3211;SDS011;1618;47.056;15.472;2023-05-07T04:50:30;6.10;;;5.90;;
3211;SDS011;1618;47.056;15.472;2023-05-07T04:52:57;5.60;;;5.40;;
3211;SDS011;1618;47.056;15.472;2023-05-07T04:55:24;6.03;;;5.83;;
3211;SDS011;1618;47.056;15.472;2023-05-07T04:57:52;6.30;;;6.10;;
3211;SDS011;1618;47.056;15.472;2023-05-07T05:00:20;6.60;;;6.40;;
3211;SDS011;1618;47.056;15.472;2023-05-07T05:02:48;7.27;;;6.97;;
3211;SDS011;1618;47.056;15.472;2023-05-07T05:05:15;6.50;;;6.30;;
3211;SDS011;1618;47.056;15.472;2023-05-07T05:07:44;6.90;;;6.70;;
3211;SDS011;1618;47.056;15.472;2023-05-07T05:10:11;7.13;;;6.93;;
3211;SDS011;1618;47.056;15.472;2023-05-07T05:12:38;7.40;;;7.10;;
3211;SDS011;1618;47.056;15.472;2023-05-07T05:15:06;7.67;;;7.37;;
3211;SDS011;1618;47.056;15.472;2023-05-07T05:17:33;8.77;;;8.47;;
3211;SDS011;1618;47.056;15.472;2023-05-07T05:20:01;8.93;;;8.63;;
3211;SDS011;1618;47.056;15.472;2023-05-07T05:22:29;9.30;;;9.00;;
3211;SDS011;1618;47.056;15.472;2023-05-07T05:24:58;9.03;;;8.73;;
3211;SDS011;1618;47.056;15.472;2023-05-07T05:27:25;8.70;;;8.40;;
3211;SDS011;1618;47.056;15.472;2023-05-07T05:29:53;8.20;;;7.90;;
3211;SDS011;1618;47.056;15.472;2023-05-07T05:32:20;8.60;;;8.30;;
3211;SDS011;1618;47.056;15.472;2023-05-07T05:34:47;8.70;;;8.40;;
3211;SDS011;1618;47.056;15.472;2023-05-07T05:37:15;9.20;;;8.80;;
3211;SDS011;1618;47.056;15.472;2023-05-07T05:39:42;8.53;;;8.23;;
3211;SDS011;1618;47.056;15.472;2023-05-07T05:42:11;9.00;;;8.70;;
3211;SDS011;1618;47.056;15.472;2023-05-07T05:44:38;9.70;;;9.30;;
3211;SDS011;1618;47.056;15.472;2023-05-07T05:47:05;8.93;;;8.63;;
3211;SDS011;1618;47.056;15.472;2023-05-07T05:49:32;10.10;;;9.70;;
3211;SDS011;1618;47.056;15.472;2023-05-07T05:52:00;9.60;;;9.30;;
3211;SDS011;1618;47.056;15.472;2023-05-07T05:54:27;9.30;;;9.00;;
3211;SDS011;1618;47.056;15.472;2023-05-07T05:56:54;9.63;;;9.23;;
3211;SDS011;1618;47.056;15.472;2023-05-07T05:59:23;9.27;;;8.97;;
3211;SDS011;1618;47.056;15.472;2023-05-07T06:01:50;9.10;;;8.80;;
3211;SDS011;1618;47.056;15.472;2023-05-07T06:04:18;9.03;;;8.73;;
3211;SDS011;1618;47.056;15.472;2023-05-07T06:06:45;9.70;;;9.30;;
3211;SDS011;1618;47.056;15.472;2023-05-07T06:09:12;8.20;;;7.90;;
3211;SDS011;1618;47.056;15.472;2023-05-07T06:11:40;11.00;;;10.60;;
3211;SDS011;1618;47.056;15.472;2023-05-07T06:14:07;11.20;;;10.80;;
3211;SDS011;1618;47.056;15.472;2023-05-07T06:16:35;11.70;;;11.20;;
3211;SDS011;1618;47.056;15.472;2023-05-07T06:19:03;11.00;;;10.60;;
3211;SDS011;1618;47.056;15.472;2023-05-07T06:21:31;10.60;;;10.20;;
3211;SDS011;1618;47.056;15.472;2023-05-07T06:23:58;10.73;;;10.33;;
3211;SDS011;1618;47.056;15.472;2023-05-07T06:26:25;11.70;;;11.20;;
3211;SDS011;1618;47.056;15.472;2023-05-07T06:28:52;12.20;;;11.70;;
3211;SDS011;1618;47.056;15.472;2023-05-07T06:31:20;11.80;;;11.30;;
3211;SDS011;1618;47.056;15.472;2023-05-07T06:33:49;11.33;;;10.93;;
3211;SDS011;1618;47.056;15.472;2023-05-07T06:36:16;11.40;;;11.00;;
3211;SDS011;1618;47.056;15.472;2023-05-07T06:38:43;11.50;;;11.00;;
3211;SDS011;1618;47.056;15.472;2023-05-07T06:41:11;12.10;;;11.60;;
3211;SDS011;1618;47.056;15.472;2023-05-07T06:43:38;12.17;;;11.67;;
3211;SDS011;1618;47.056;15.472;2023-05-07T06:46:06;12.23;;;11.73;;
3211;SDS011;1618;47.056;15.472;2023-05-07T06:48:33;12.43;;;11.93;;
3211;SDS011;1618;47.056;15.472;2023-05-07T06:51:02;13.07;;;12.47;;
3211;SDS011;1618;47.056;15.472;2023-05-07T06:53:29;12.90;;;12.30;;
3211;SDS011;1618;47.056;15.472;2023-05-07T06:55:57;13.70;;;13.10;;
3211;SDS011;1618;47.056;15.472;2023-05-07T06:58:24;14.40;;;13.70;;
3211;SDS011;1618;47.056;15.472;2023-05-07T07:00:51;14.60;;;13.90;;
3211;SDS011;1618;47.056;15.472;2023-05-07T07:03:18;14.30;;;13.60;;
3211;SDS011;1618;47.056;15.472;2023-05-07T07:05:46;15.83;;;14.93;;
3211;SDS011;1618;47.056;15.472;2023-05-07T07:08:14;15.00;;;14.30;;
3211;SDS011;1618;47.056;15.472;2023-05-07T07:10:43;16.23;;;15.43;;
3211;SDS011;1618;47.056;15.472;2023-05-07T07:13:10;15.90;;;15.10;;
3211;SDS011;1618;47.056;15.472;2023-05-07T07:15:37;16.20;;;15.40;;
3211;SDS011;1618;47.056;15.472;2023-05-07T07:18:05;15.93;;;15.10;;
3211;SDS011;1618;47.056;15.472;2023-05-07T07:20:32;15.83;;;15.03;;
3211;SDS011;1618;47.056;15.472;2023-05-07T07:22:59;16.30;;;15.50;;
3211;SDS011;1618;47.056;15.472;2023-05-07T07:25:28;16.23;;;15.43;;
3211;SDS011;1618;47.056;15.472;2023-05-07T07:27:55;16.40;;;15.60;;
3211;SDS011;1618;47.056;15.472;2023-05-07T07:30:22;16.20;;;15.40;;
3211;SDS011;1618;47.056;15.472;2023-05-07T07:32:50;16.13;;;15.33;;
3211;SDS011;1618;47.056;15.472;2023-05-07T07:35:25;15.65;;;14.75;;
3211;SDS011;1618;47.056;15.472;2023-05-07T07:37:52;16.27;;;15.37;;
3211;SDS011;1618;47.056;15.472;2023-05-07T07:40:20;16.20;;;15.30;;
3211;SDS011;1618;47.056;15.472;2023-05-07T07:42:48;16.80;;;15.90;;
3211;SDS011;1618;47.056;15.472;2023-05-07T07:45:17;16.93;;;16.03;;
3211;SDS011;1618;47.056;15.472;2023-05-07T07:47:44;16.60;;;15.70;;
3211;SDS011;1618;47.056;15.472;2023-05-07T07:50:12;16.60;;;15.70;;
3211;SDS011;1618;47.056;15.472;2023-05-07T07:52:39;17.30;;;16.40;;
3211;SDS011;1618;47.056;15.472;2023-05-07T07:55:06;17.47;;;16.57;;
3211;SDS011;1618;47.056;15.472;2023-05-07T07:57:34;17.70;;;16.50;;
3211;SDS011;1618;47.056;15.472;2023-05-07T08:00:03;18.60;;;17.60;;
3211;SDS011;1618;47.056;15.472;2023-05-07T08:02:32;17.20;;;16.20;;
3211;SDS011;1618;47.056;15.472;2023-05-07T08:04:59;17.73;;;16.73;;
3211;SDS011;1618;47.056;15.472;2023-05-07T08:07:26;16.80;;;15.90;;
3211;SDS011;1618;47.056;15.472;2023-05-07T08:09:54;17.93;;;16.93;;
3211;SDS011;1618;47.056;15.472;2023-05-07T08:12:21;17.60;;;16.60;;
3211;SDS011;1618;47.056;15.472;2023-05-07T08:14:48;18.63;;;17.53;;
3211;SDS011;1618;47.056;15.472;2023-05-07T08:17:17;18.00;;;17.00;;
3211;SDS011;1618;47.056;15.472;2023-05-07T08:19:47;17.50;;;16.50;;
3211;SDS011;1618;47.056;15.472;2023-05-07T08:22:14;17.10;;;16.10;;
3211;SDS011;1618;47.056;15.472;2023-05-07T08:24:43;19.20;;;18.10;;
3211;SDS011;1618;47.056;15.472;2023-05-07T08:27:11;18.60;;;17.50;;
3211;SDS011;1618;47.056;15.472;2023-05-07T08:29:38;20.90;;;19.60;;
3211;SDS011;1618;47.056;15.472;2023-05-07T08:32:05;19.90;;;18.60;;
3211;SDS011;1618;47.056;15.472;2023-05-07T08:34:34;19.47;;;18.27;;
3211;SDS011;1618;47.056;15.472;2023-05-07T08:37:01;19.30;;;18.10;;
3211;SDS011;1618;47.056;15.472;2023-05-07T08:39:29;19.33;;;18.13;;
3211;SDS011;1618;47.056;15.472;2023-05-07T08:41:56;19.90;;;18.60;;
3211;SDS011;1618;47.056;15.472;2023-05-07T08:44:27;20.43;;;19.13;;
3211;SDS011;1618;47.056;15.472;2023-05-07T08:46:56;20.00;;;18.70;;
3211;SDS011;1618;47.056;15.472;2023-05-07T08:49:23;20.40;;;19.00;;
3211;SDS011;1618;47.056;15.472;2023-05-07T08:51:52;19.57;;;18.27;;
3211;SDS011;1618;47.056;15.472;2023-05-07T08:54:21;20.43;;;19.03;;
3211;SDS011;1618;47.056;15.472;2023-05-07T08:56:48;21.90;;;20.40;;
3211;SDS011;1618;47.056;15.472;2023-05-07T08:59:15;22.17;;;20.50;;
3211;SDS011;1618;47.056;15.472;2023-05-07T09:01:43;22.02;;;20.42;;
3211;SDS011;1618;47.056;15.472;2023-05-07T09:04:10;23.10;;;21.40;;
3211;SDS011;1618;47.056;15.472;2023-05-07T09:06:38;23.10;;;21.40;;
3211;SDS011;1618;47.056;15.472;2023-05-07T09:09:08;23.90;;;22.03;;
3211;SDS011;1618;47.056;15.472;2023-05-07T09:11:35;24.00;;;22.20;;
3211;SDS011;1618;47.056;15.472;2023-05-07T09:14:02;25.03;;;23.13;;
3211;SDS011;1618;47.056;15.472;2023-05-07T09:16:30;23.70;;;21.90;;
3211;SDS011;1618;47.056;15.472;2023-05-07T09:18:58;23.43;;;21.63;;
3211;SDS011;1618;47.056;15.472;2023-05-07T09:21:26;23.90;;;22.10;;
3211;SDS011;1618;47.056;15.472;2023-05-07T09:23:54;24.23;;;22.43;;
3211;SDS011;1618;47.056;15.472;2023-05-07T09:26:23;24.50;;;22.60;;
3211;SDS011;1618;47.056;15.472;2023-05-07T09:28:50;25.30;;;23.40;;
3211;SDS011;1618;47.056;15.472;2023-05-07T09:31:18;24.37;;;22.47;;
3211;SDS011;1618;47.056;15.472;2023-05-07T09:33:48;24.80;;;22.80;;
3211;SDS011;1618;47.056;15.472;2023-05-07T09:36:15;25.07;;;23.17;;
3211;SDS011;1618;47.056;15.472;2023-05-07T09:38:42;24.70;;;22.70;;
3211;SDS011;1618;47.056;15.472;2023-05-07T09:41:10;24.90;;;23.00;;
3211;SDS011;1618;47.056;15.472;2023-05-07T09:43:39;24.50;;;22.60;;
3211;SDS011;1618;47.056;15.472;2023-05-07T09:46:08;24.50;;;22.70;;
3211;SDS011;1618;47.056;15.472;2023-05-07T09:48:36;24.87;;;22.97;;
3211;SDS011;1618;47.056;15.472;2023-05-07T09:51:07;25.50;;;23.60;;
3211;SDS011;1618;47.056;15.472;2023-05-07T09:53:36;25.27;;;23.37;;
3211;SDS011;1618;47.056;15.472;2023-05-07T09:56:04;25.20;;;23.20;;
3211;SDS011;1618;47.056;15.472;2023-05-07T09:58:31;24.60;;;22.70;;
3211;SDS011;1618;47.056;15.472;2023-05-07T10:01:00;25.43;;;23.50;;
3211;SDS011;1618;47.056;15.472;2023-05-07T10:03:28;25.03;;;23.03;;
3211;SDS011;1618;47.056;15.472;2023-05-07T10:05:57;24.50;;;22.50;;
3211;SDS011;1618;47.056;15.472;2023-05-07T10:08:25;24.30;;;22.40;;
3211;SDS011;1618;47.056;15.472;2023-05-07T10:10:52;24.60;;;22.70;;
3211;SDS011;1618;47.056;15.472;2023-05-07T10:13:19;25.50;;;23.50;;
3211;SDS011;1618;47.056;15.472;2023-05-07T10:15:47;25.80;;;23.80;;
3211;SDS011;1618;47.056;15.472;2023-05-07T10:18:16;26.10;;;24.10;;
3211;SDS011;1618;47.056;15.472;2023-05-07T10:20:43;26.93;;;24.63;;
3211;SDS011;1618;47.056;15.472;2023-05-07T10:23:12;25.63;;;23.63;;
3211;SDS011;1618;47.056;15.472;2023-05-07T10:25:40;26.80;;;24.60;;
3211;SDS011;1618;47.056;15.472;2023-05-07T10:28:08;26.10;;;24.00;;
3211;SDS011;1618;47.056;15.472;2023-05-07T10:30:39;26.70;;;24.60;;
3211;SDS011;1618;47.056;15.472;2023-05-07T10:33:08;27.57;;;25.37;;
3211;SDS011;1618;47.056;15.472;2023-05-07T10:35:38;28.70;;;26.40;;
3211;SDS011;1618;47.056;15.472;2023-05-07T10:38:06;27.50;;;25.30;;
3211;SDS011;1618;47.056;15.472;2023-05-07T10:40:34;28.07;;;25.77;;
3211;SDS011;1618;47.056;15.472;2023-05-07T10:43:02;28.83;;;26.53;;
3211;SDS011;1618;47.056;15.472;2023-05-07T10:45:30;28.00;;;25.70;;
3211;SDS011;1618;47.056;15.472;2023-05-07T10:48:10;28.70;;;26.30;;
3211;SDS011;1618;47.056;15.472;2023-05-07T10:50:39;28.20;;;25.90;;
3211;SDS011;1618;47.056;15.472;2023-05-07T10:53:20;30.67;;;28.17;;
3211;SDS011;1618;47.056;15.472;2023-05-07T10:55:49;30.40;;;27.90;;
3211;SDS011;1618;47.056;15.472;2023-05-07T10:58:26;31.30;;;28.90;;
3211;SDS011;1618;47.056;15.472;2023-05-07T11:00:56;30.20;;;27.80;;
3211;SDS011;1618;47.056;15.472;2023-05-07T11:03:24;32.03;;;29.53;;
3211;SDS011;1618;47.056;15.472;2023-05-07T11:11:17;32.87;;;30.37;;
3211;SDS011;1618;47.056;15.472;2023-05-07T11:13:46;32.07;;;29.47;;
3211;SDS011;1618;47.056;15.472;2023-05-07T11:16:17;32.07;;;29.47;;
3211;SDS011;1618;47.056;15.472;2023-05-07T11:18:46;30.90;;;28.20;;
3211;SDS011;1618;47.056;15.472;2023-05-07T11:21:15;31.77;;;29.10;;
3211;SDS011;1618;47.056;15.472;2023-05-07T11:23:58;33.30;;;30.60;;
3211;SDS011;1618;47.056;15.472;2023-05-07T11:26:27;33.83;;;31.30;;
3211;SDS011;1618;47.056;15.472;2023-05-07T11:28:56;31.90;;;29.40;;
3211;SDS011;1618;47.056;15.472;2023-05-07T11:31:26;30.50;;;27.97;;
3211;SDS011;1618;47.056;15.472;2023-05-07T11:33:54;30.60;;;28.00;;
3211;SDS011;1618;47.056;15.472;2023-05-07T11:36:22;33.00;;;30.30;;
3211;SDS011;1618;47.056;15.472;2023-05-07T11:38:51;31.57;;;28.97;;
3211;SDS011;1618;47.056;15.472;2023-05-07T11:41:18;31.10;;;28.50;;
3211;SDS011;1618;47.056;15.472;2023-05-07T11:43:58;31.90;;;29.20;;
3211;SDS011;1618;47.056;15.472;2023-05-07T11:46:26;31.07;;;28.37;;
3211;SDS011;1618;47.056;15.472;2023-05-07T11:48:53;29.93;;;27.23;;
3211;SDS011;1618;47.056;15.472;2023-05-07T11:51:23;32.70;;;30.30;;
3211;SDS011;1618;47.056;15.472;2023-05-07T11:53:52;32.60;;;30.30;;
3211;SDS011;1618;47.056;15.472;2023-05-07T11:56:20;33.13;;;30.73;;
3211;SDS011;1618;47.056;15.472;2023-05-07T11:58:47;31.70;;;29.00;;
3211;SDS011;1618;47.056;15.472;2023-05-07T12:01:18;31.50;;;28.90;;
3211;SDS011;1618;47.056;15.472;2023-05-07T12:03:46;32.20;;;29.60;;
3211;SDS011;1618;47.056;15.472;2023-05-07T12:06:14;32.27;;;29.57;;
3211;SDS011;1618;47.056;15.472;2023-05-07T12:08:42;30.90;;;28.30;;
3211;SDS011;1618;47.056;15.472;2023-05-07T12:11:12;30.67;;;28.07;;
3211;SDS011;1618;47.056;15.472;2023-05-07T12:13:40;31.00;;;28.40;;
3211;SDS011;1618;47.056;15.472;2023-05-07T12:16:08;29.97;;;27.37;;
3211;SDS011;1618;47.056;15.472;2023-05-07T12:18:37;30.93;;;28.33;;
3211;SDS011;1618;47.056;15.472;2023-05-07T12:21:04;30.80;;;28.40;;
3211;SDS011;1618;47.056;15.472;2023-05-07T12:23:33;33.10;;;30.50;;
3211;SDS011;1618;47.056;15.472;2023-05-07T12:26:01;31.87;;;29.37;;
3211;SDS011;1618;47.056;15.472;2023-05-07T12:28:28;30.43;;;27.90;;
3211;SDS011;1618;47.056;15.472;2023-05-07T12:30:56;29.40;;;26.90;;
3211;SDS011;1618;47.056;15.472;2023-05-07T12:33:24;30.20;;;27.70;;
3211;SDS011;1618;47.056;15.472;2023-05-07T12:35:55;30.70;;;28.20;;
3211;SDS011;1618;47.056;15.472;2023-05-07T12:38:22;29.97;;;27.57;;
3211;SDS011;1618;47.056;15.472;2023-05-07T12:40:50;31.40;;;28.90;;
3211;SDS011;1618;47.056;15.472;2023-05-07T12:43:18;30.60;;;28.20;;
3211;SDS011;1618;47.056;15.472;2023-05-07T12:45:46;29.80;;;27.30;;
3211;SDS011;1618;47.056;15.472;2023-05-07T12:48:13;31.50;;;28.80;;
3211;SDS011;1618;47.056;15.472;2023-05-07T12:50:41;31.13;;;28.53;;
3211;SDS011;1618;47.056;15.472;2023-05-07T12:53:11;31.70;;;29.00;;
3211;SDS011;1618;47.056;15.472;2023-05-07T12:55:40;31.43;;;28.83;;
3211;SDS011;1618;47.056;15.472;2023-05-07T12:58:08;31.40;;;28.90;;
3211;SDS011;1618;47.056;15.472;2023-05-07T13:00:41;30.27;;;27.77;;
3211;SDS011;1618;47.056;15.472;2023-05-07T13:03:08;30.50;;;28.00;;
3211;SDS011;1618;47.056;15.472;2023-05-07T13:05:36;30.40;;;27.90;;
3211;SDS011;1618;47.056;15.472;2023-05-07T13:08:03;30.00;;;27.50;;
3211;SDS011;1618;47.056;15.472;2023-05-07T13:10:33;29.50;;;27.00;;
3211;SDS011;1618;47.056;15.472;2023-05-07T13:13:00;30.00;;;27.10;;
3211;SDS011;1618;47.056;15.472;2023-05-07T13:15:27;31.73;;;28.83;;
3211;SDS011;1618;47.056;15.472;2023-05-07T13:17:55;40.87;;;36.67;;
3211;SDS011;1618;47.056;15.472;2023-05-07T13:20:22;40.00;;;36.10;;
3211;SDS011;1618;47.056;15.472;2023-05-07T13:22:50;43.07;;;39.67;;
3211;SDS011;1618;47.056;15.472;2023-05-07T13:25:20;42.10;;;39.00;;
3211;SDS011;1618;47.056;15.472;2023-05-07T13:27:48;35.10;;;32.60;;
3211;SDS011;1618;47.056;15.472;2023-05-07T13:30:17;28.60;;;26.70;;
3211;SDS011;1618;47.056;15.472;2023-05-07T13:32:44;23.60;;;22.10;;
3211;SDS011;1618;47.056;15.472;2023-05-07T13:35:17;19.40;;;18.30;;
3211;SDS011;1618;47.056;15.472;2023-05-07T13:37:44;16.80;;;15.90;;
3211;SDS011;1618;47.056;15.472;2023-05-07T13:40:13;14.60;;;13.90;;
3211;SDS011;1618;47.056;15.472;2023-05-07T13:42:40;14.10;;;13.40;;
3211;SDS011;1618;47.056;15.472;2023-05-07T13:45:10;13.17;;;12.57;;
3211;SDS011;1618;47.056;15.472;2023-05-07T13:47:39;11.20;;;10.70;;
3211;SDS011;1618;47.056;15.472;2023-05-07T13:50:07;11.03;;;10.53;;
3211;SDS011;1618;47.056;15.472;2023-05-07T13:52:35;9.07;;;8.73;;
3211;SDS011;1618;47.056;15.472;2023-05-07T13:55:02;8.40;;;8.10;;
3211;SDS011;1618;47.056;15.472;2023-05-07T13:57:30;8.83;;;8.53;;
3211;SDS011;1618;47.056;15.472;2023-05-07T13:59:57;8.30;;;8.00;;
3211;SDS011;1618;47.056;15.472;2023-05-07T14:02:26;7.50;;;7.20;;
3211;SDS011;1618;47.056;15.472;2023-05-07T14:04:53;7.40;;;7.10;;
3211;SDS011;1618;47.056;15.472;2023-05-07T14:07:23;6.83;;;6.63;;
3211;SDS011;1618;47.056;15.472;2023-05-07T14:09:50;6.20;;;6.00;;
3211;SDS011;1618;47.056;15.472;2023-05-07T14:12:18;5.63;;;5.43;;
3211;SDS011;1618;47.056;15.472;2023-05-07T14:14:45;5.60;;;5.40;;
3211;SDS011;1618;47.056;15.472;2023-05-07T14:17:16;5.40;;;5.20;;
3211;SDS011;1618;47.056;15.472;2023-05-07T14:19:45;5.30;;;5.10;;
3211;SDS011;1618;47.056;15.472;2023-05-07T14:22:13;5.00;;;4.90;;
3211;SDS011;1618;47.056;15.472;2023-05-07T14:24:41;4.70;;;4.60;;
3211;SDS011;1618;47.056;15.472;2023-05-07T14:27:08;4.43;;;4.33;;
3211;SDS011;1618;47.056;15.472;2023-05-07T14:29:35;5.10;;;4.90;;
3211;SDS011;1618;47.056;15.472;2023-05-07T14:32:05;4.30;;;4.20;;
3211;SDS011;1618;47.056;15.472;2023-05-07T14:34:33;5.03;;;4.83;;
3211;SDS011;1618;47.056;15.472;2023-05-07T14:37:02;4.20;;;4.00;;
3211;SDS011;1618;47.056;15.472;2023-05-07T14:39:30;3.80;;;3.70;;
3211;SDS011;1618;47.056;15.472;2023-05-07T14:41:58;4.63;;;4.43;;
3211;SDS011;1618;47.056;15.472;2023-05-07T14:44:25;3.60;;;3.50;;
3211;SDS011;1618;47.056;15.472;2023-05-07T14:46:54;3.17;;;3.07;;
3211;SDS011;1618;47.056;15.472;2023-05-07T14:49:21;3.30;;;3.20;;
3211;SDS011;1618;47.056;15.472;2023-05-07T14:51:49;3.80;;;3.70;;
3211;SDS011;1618;47.056;15.472;2023-05-07T14:54:17;4.03;;;3.83;;
3211;SDS011;1618;47.056;15.472;2023-05-07T14:56:45;3.40;;;3.30;;
3211;SDS011;1618;47.056;15.472;2023-05-07T14:59:13;3.53;;;3.43;;